createdAt,value
2018-10-05T00:01:16.041Z,10.07
2018-10-05T00:03:43.219Z,10.06
2018-10-05T00:06:10.405Z,9.98
2018-10-05T00:08:37.639Z,9.95
2018-10-05T00:11:04.974Z,9.94
2018-10-05T00:13:32.122Z,9.98
2018-10-05T00:15:59.343Z,10.05
2018-10-05T00:18:26.531Z,9.91
2018-10-05T00:20:53.897Z,9.92
2018-10-05T00:23:21.138Z,9.98
2018-10-05T00:25:48.301Z,9.92
2018-10-05T00:28:16.494Z,9.88
2018-10-05T00:30:43.654Z,9.92
2018-10-05T00:33:10.860Z,9.83
2018-10-05T00:35:38.066Z,9.71
2018-10-05T00:38:05.446Z,9.64
2018-10-05T00:40:32.639Z,9.70
2018-10-05T00:42:59.883Z,9.72
2018-10-05T00:45:27.086Z,9.86
2018-10-05T00:47:54.374Z,9.85
2018-10-05T00:50:21.478Z,9.77
2018-10-05T00:52:48.635Z,9.82
2018-10-05T00:55:15.801Z,9.91
2018-10-05T00:57:42.991Z,9.94
2018-10-05T01:00:10.288Z,9.91
2018-10-05T01:02:37.538Z,9.64
2018-10-05T01:05:07.108Z,9.56
2018-10-05T01:07:34.296Z,9.56
2018-10-05T01:10:01.569Z,9.47
2018-10-05T01:12:28.778Z,9.51
2018-10-05T01:14:55.967Z,9.54
2018-10-05T01:17:23.197Z,9.61
2018-10-05T01:19:50.386Z,9.57
2018-10-05T01:22:17.633Z,9.53
2018-10-05T01:24:44.974Z,9.50
2018-10-05T01:27:11.993Z,9.40
2018-10-05T01:29:39.235Z,9.39
2018-10-05T01:32:06.489Z,9.35
2018-10-05T01:34:33.694Z,9.29
2018-10-05T01:37:00.875Z,9.25
2018-10-05T01:39:28.082Z,9.17
2018-10-05T01:41:55.270Z,9.21
2018-10-05T01:44:22.412Z,9.17
2018-10-05T01:46:49.610Z,9.21
2018-10-05T01:49:16.768Z,9.31
2018-10-05T01:51:43.935Z,9.28
2018-10-05T01:54:11.174Z,9.07
2018-10-05T01:56:38.310Z,8.99
2018-10-05T01:59:05.482Z,8.95
2018-10-05T02:01:33.018Z,8.96
2018-10-05T02:04:00.477Z,8.92
2018-10-05T02:06:27.727Z,8.92
2018-10-05T02:08:54.916Z,8.93
2018-10-05T02:11:22.190Z,8.95
2018-10-05T02:13:49.561Z,8.99
2018-10-05T02:16:16.738Z,9.01
2018-10-05T02:18:43.957Z,9.00
2018-10-05T02:21:11.120Z,8.87
2018-10-05T02:23:38.337Z,8.73
2018-10-05T02:26:05.614Z,8.74
2018-10-05T02:28:32.811Z,8.75
2018-10-05T02:31:00.111Z,8.74
2018-10-05T02:33:27.365Z,8.59
2018-10-05T02:35:54.524Z,8.54
2018-10-05T02:38:21.662Z,8.56
2018-10-05T02:40:49.207Z,8.59
2018-10-05T02:43:16.392Z,8.60
2018-10-05T02:45:43.527Z,8.61
2018-10-05T02:48:10.691Z,8.58
2018-10-05T02:50:37.833Z,8.60
2018-10-05T02:53:05.094Z,8.59
2018-10-05T02:55:32.333Z,8.53
2018-10-05T02:58:00.278Z,8.46
2018-10-05T03:00:39.038Z,8.40
2018-10-05T03:03:06.766Z,8.35
2018-10-05T03:05:33.870Z,8.35
2018-10-05T03:08:01.073Z,8.31
2018-10-05T03:10:28.270Z,8.32
2018-10-05T03:12:55.489Z,8.33
2018-10-05T03:15:22.642Z,8.10
2018-10-05T03:17:49.874Z,7.84
2018-10-05T03:20:17.009Z,7.74
2018-10-05T03:22:44.210Z,7.10
2018-10-05T03:25:11.635Z,8.02
2018-10-05T03:27:38.854Z,8.10
2018-10-05T03:30:06.068Z,8.15
2018-10-05T03:32:33.275Z,8.12
2018-10-05T03:35:00.455Z,8.11
2018-10-05T03:37:27.839Z,8.10
2018-10-05T03:39:55.046Z,8.04
2018-10-05T03:42:22.193Z,8.05
2018-10-05T03:44:49.378Z,8.06
2018-10-05T03:47:16.542Z,7.98
2018-10-05T03:49:43.765Z,7.93
2018-10-05T03:52:10.936Z,7.93
2018-10-05T03:54:38.772Z,8.02
2018-10-05T03:57:06.984Z,8.03
2018-10-05T03:59:34.225Z,7.96
2018-10-05T04:02:01.382Z,7.98
2018-10-05T04:04:28.546Z,7.95
2018-10-05T04:06:55.792Z,7.86
2018-10-05T04:09:23.101Z,7.86
2018-10-05T04:11:50.388Z,7.84
2018-10-05T04:14:17.704Z,7.98
2018-10-05T04:16:44.892Z,7.95
2018-10-05T04:19:12.064Z,7.89
2018-10-05T04:21:39.295Z,7.95
2018-10-05T04:24:06.579Z,8.03
2018-10-05T04:26:34.606Z,8.03
2018-10-05T04:29:01.793Z,8.06
2018-10-05T04:31:28.971Z,7.99
2018-10-05T04:33:56.169Z,7.86
2018-10-05T04:36:23.364Z,7.86
2018-10-05T04:38:50.580Z,7.84
2018-10-05T04:41:17.901Z,7.87
2018-10-05T04:43:45.023Z,7.90
2018-10-05T04:46:12.217Z,7.90
2018-10-05T04:48:39.373Z,7.87
2018-10-05T04:51:07.151Z,7.89
2018-10-05T04:53:34.364Z,7.96
2018-10-05T04:56:01.595Z,7.93
2018-10-05T04:58:28.809Z,7.96
2018-10-05T05:00:55.947Z,7.99
2018-10-05T05:03:23.195Z,7.98
2018-10-05T05:05:50.414Z,7.91
2018-10-05T05:08:17.620Z,7.87
2018-10-05T05:10:44.852Z,7.88
2018-10-05T05:13:12.109Z,7.84
2018-10-05T05:15:39.313Z,7.93
2018-10-05T05:18:06.512Z,7.90
2018-10-05T05:20:33.768Z,7.81
2018-10-05T05:23:01.507Z,7.52
2018-10-05T05:25:28.742Z,7.63
2018-10-05T05:27:56.037Z,7.68
2018-10-05T05:30:23.245Z,7.73
2018-10-05T05:32:50.436Z,7.77
2018-10-05T05:35:17.662Z,7.72
2018-10-05T05:37:44.870Z,7.72
2018-10-05T05:40:12.177Z,7.77
2018-10-05T05:42:39.359Z,7.81
2018-10-05T05:45:07.291Z,7.88
2018-10-05T05:47:34.548Z,7.92
2018-10-05T05:50:01.823Z,7.81
2018-10-05T05:52:29.056Z,7.76
2018-10-05T05:54:56.331Z,7.82
2018-10-05T05:57:23.615Z,7.84
2018-10-05T05:59:51.222Z,7.91
2018-10-05T06:02:18.434Z,7.96
2018-10-05T06:04:45.773Z,7.98
2018-10-05T06:07:12.974Z,7.94
2018-10-05T06:09:40.352Z,7.96
2018-10-05T06:12:07.561Z,7.89
2018-10-05T06:14:34.969Z,7.85
2018-10-05T06:17:02.211Z,7.89
2018-10-05T06:19:29.775Z,7.91
2018-10-05T06:21:57.179Z,7.97
2018-10-05T06:24:24.280Z,7.97
2018-10-05T06:26:52.161Z,8.00
2018-10-05T06:29:19.467Z,8.04
2018-10-05T06:31:46.981Z,7.99
2018-10-05T06:34:14.210Z,7.86
2018-10-05T06:36:41.463Z,7.84
2018-10-05T06:39:09.989Z,7.91
2018-10-05T06:41:37.402Z,8.02
2018-10-05T06:44:04.757Z,8.04
2018-10-05T06:46:32.117Z,8.06
2018-10-05T06:48:59.405Z,8.18
2018-10-05T06:51:26.702Z,8.22
2018-10-05T06:53:57.738Z,8.27
2018-10-05T06:56:25.116Z,8.36
2018-10-05T06:58:52.450Z,8.37
2018-10-05T07:01:20.057Z,8.50
2018-10-05T07:03:47.455Z,8.57
2018-10-05T07:06:14.708Z,8.64
2018-10-05T07:08:41.963Z,8.68
2018-10-05T07:11:09.421Z,8.71
2018-10-05T07:13:37.842Z,8.79
2018-10-05T07:16:05.053Z,8.89
2018-10-05T07:18:32.515Z,9.00
2018-10-05T07:20:59.755Z,9.13
2018-10-05T07:23:27.110Z,9.17
2018-10-05T07:25:54.374Z,9.27
2018-10-05T07:28:21.729Z,9.32
2018-10-05T07:30:49.595Z,9.40
2018-10-05T07:33:16.883Z,9.51
2018-10-05T07:35:44.042Z,9.63
2018-10-05T07:38:11.355Z,9.80
2018-10-05T07:40:38.597Z,9.87
2018-10-05T07:43:06.126Z,9.99
2018-10-05T07:45:33.320Z,10.16
2018-10-05T07:48:00.612Z,10.23
2018-10-05T07:50:27.830Z,10.33
2018-10-05T07:52:55.225Z,10.43
2018-10-05T07:55:22.526Z,10.57
2018-10-05T07:57:49.728Z,10.21
2018-10-05T08:00:16.938Z,10.98
2018-10-05T08:02:44.830Z,11.04
2018-10-05T08:05:12.098Z,11.10
2018-10-05T08:07:39.455Z,11.21
2018-10-05T08:10:06.858Z,11.34
2018-10-05T08:12:34.200Z,11.53
2018-10-05T08:15:01.434Z,11.60
2018-10-05T08:17:28.635Z,11.66
2018-10-05T08:19:56.432Z,11.80
2018-10-05T08:22:24.251Z,11.96
2018-10-05T08:24:51.504Z,12.10
2018-10-05T08:27:18.800Z,12.31
2018-10-05T08:29:46.326Z,12.44
2018-10-05T08:32:13.635Z,12.59
2018-10-05T08:34:40.864Z,12.72
2018-10-05T08:37:08.170Z,12.83
2018-10-05T08:39:35.529Z,13.01
2018-10-05T08:42:02.784Z,13.10
2018-10-05T08:44:30.115Z,13.26
2018-10-05T08:46:57.592Z,13.37
2018-10-05T08:49:24.794Z,13.51
2018-10-05T08:51:52.052Z,13.60
2018-10-05T08:54:19.776Z,13.68
2018-10-05T08:56:47.161Z,13.83
2018-10-05T08:59:14.314Z,13.97
2018-10-05T09:01:41.614Z,14.07
2018-10-05T09:04:08.818Z,14.21
2018-10-05T09:06:36.032Z,14.37
2018-10-05T09:09:04.605Z,14.42
2018-10-05T09:11:31.903Z,14.48
2018-10-05T09:13:59.153Z,14.59
2018-10-05T09:16:26.481Z,14.72
2018-10-05T09:18:53.765Z,14.85
2018-10-05T09:21:21.014Z,15.01
2018-10-05T09:23:48.309Z,15.11
2018-10-05T09:26:15.678Z,15.18
2018-10-05T09:28:42.933Z,15.28
2018-10-05T09:31:10.275Z,15.37
2018-10-05T09:33:37.721Z,15.45
2018-10-05T09:36:04.978Z,15.54
2018-10-05T09:38:32.299Z,15.70
2018-10-05T09:40:59.542Z,15.83
2018-10-05T09:43:26.839Z,15.88
2018-10-05T09:45:54.166Z,16.00
2018-10-05T09:48:21.646Z,16.04
2018-10-05T09:50:51.024Z,16.08
2018-10-05T09:53:18.451Z,16.17
2018-10-05T09:55:45.690Z,16.25
2018-10-05T09:58:13.046Z,16.33
2018-10-05T10:00:46.226Z,15.78
2018-10-05T10:03:19.548Z,16.48
2018-10-05T10:05:47.025Z,16.56
2018-10-05T10:08:14.813Z,16.64
2018-10-05T10:10:42.099Z,16.82
2018-10-05T10:13:09.918Z,16.85
2018-10-05T10:15:37.339Z,16.93
2018-10-05T10:18:05.327Z,16.99
2018-10-05T10:20:32.489Z,16.51
2018-10-05T10:22:59.746Z,17.22
2018-10-05T10:25:27.074Z,17.33
2018-10-05T10:27:54.338Z,17.45
2018-10-05T10:30:21.562Z,17.54
2018-10-05T10:32:48.864Z,17.57
2018-10-05T10:35:16.314Z,17.74
2018-10-05T10:37:43.590Z,17.79
2018-10-05T10:40:11.155Z,17.88
2018-10-05T10:45:16.213Z,18.06
2018-10-05T10:47:43.765Z,18.21
2018-10-05T10:50:11.118Z,18.32
2018-10-05T10:52:38.372Z,18.36
2018-10-05T10:55:05.945Z,18.45
2018-10-05T10:57:33.309Z,18.53
2018-10-05T11:00:00.637Z,18.69
2018-10-05T11:02:27.946Z,18.82
2018-10-05T11:04:55.397Z,18.93
2018-10-05T11:07:22.794Z,17.69
2018-10-05T11:09:50.160Z,19.17
2018-10-05T11:12:17.516Z,19.29
2018-10-05T11:14:44.853Z,19.38
2018-10-05T11:17:12.213Z,19.45
2018-10-05T11:19:39.493Z,19.55
2018-10-05T11:22:06.793Z,19.64
2018-10-05T11:24:34.049Z,19.74
2018-10-05T11:27:01.496Z,19.84
2018-10-05T11:29:28.983Z,19.92
2018-10-05T11:31:56.421Z,19.93
2018-10-05T11:34:23.779Z,20.04
2018-10-05T11:36:51.162Z,20.11
2018-10-05T11:39:18.613Z,20.22
2018-10-05T11:41:45.883Z,20.34
2018-10-05T11:44:13.080Z,20.43
2018-10-05T11:46:40.480Z,20.51
2018-10-05T11:49:07.649Z,20.58
2018-10-05T11:51:34.977Z,20.66
2018-10-05T11:54:02.843Z,20.80
2018-10-05T11:56:30.548Z,20.88
2018-10-05T11:58:57.822Z,20.94
2018-10-05T12:01:25.223Z,21.10
2018-10-05T12:03:53.499Z,21.22
2018-10-05T12:06:20.781Z,21.24
2018-10-05T12:08:48.059Z,21.22
2018-10-05T12:11:15.312Z,21.29
2018-10-05T12:13:42.554Z,21.44
2018-10-05T12:16:09.753Z,21.66
2018-10-05T12:18:37.085Z,21.84
2018-10-05T12:21:04.303Z,21.95
2018-10-05T12:23:31.525Z,22.12
2018-10-05T12:25:58.739Z,22.31
2018-10-05T12:28:25.950Z,22.41
2018-10-05T12:30:53.136Z,22.48
2018-10-05T12:33:20.449Z,22.65
2018-10-05T12:35:47.673Z,22.74
2018-10-05T12:38:15.032Z,22.90
2018-10-05T12:40:42.258Z,23.07
2018-10-05T12:43:09.547Z,23.14
2018-10-05T12:45:36.857Z,23.16
2018-10-05T12:48:04.199Z,23.22
2018-10-05T12:50:33.549Z,23.41
2018-10-05T12:53:00.764Z,23.53
2018-10-05T12:55:27.982Z,23.71
2018-10-05T12:57:55.214Z,23.75
2018-10-05T13:00:22.503Z,23.83
2018-10-05T13:02:49.705Z,23.94
2018-10-05T13:05:17.166Z,24.07
2018-10-05T13:07:44.414Z,24.17
2018-10-05T13:10:11.634Z,24.17
2018-10-05T13:12:38.890Z,24.22
2018-10-05T13:15:06.363Z,24.37
2018-10-05T13:17:33.676Z,24.41
2018-10-05T13:20:01.293Z,24.52
2018-10-05T13:22:29.255Z,24.74
2018-10-05T13:24:56.695Z,24.97
2018-10-05T13:27:23.882Z,25.16
2018-10-05T13:29:51.124Z,25.14
2018-10-05T13:32:18.344Z,25.24
2018-10-05T13:34:45.608Z,25.16
2018-10-05T13:37:12.828Z,25.32
2018-10-05T13:39:40.125Z,25.42
2018-10-05T13:42:07.801Z,25.44
2018-10-05T13:44:35.143Z,25.46
2018-10-05T13:47:02.349Z,25.66
2018-10-05T13:49:29.562Z,25.72
2018-10-05T13:51:56.770Z,25.86
2018-10-05T13:54:23.914Z,25.83
2018-10-05T13:56:51.134Z,25.75
2018-10-05T13:59:18.270Z,25.94
2018-10-05T14:01:45.553Z,26.09
2018-10-05T14:04:12.810Z,26.20
2018-10-05T14:06:40.121Z,26.41
2018-10-05T14:09:09.467Z,26.48
2018-10-05T14:11:36.758Z,26.68
2018-10-05T14:14:04.225Z,26.71
2018-10-05T14:16:31.508Z,26.93
2018-10-05T14:18:59.212Z,27.04
2018-10-05T14:21:26.697Z,26.96
2018-10-05T14:23:53.914Z,26.97
2018-10-05T14:26:21.171Z,27.08
2018-10-05T14:28:48.713Z,27.01
2018-10-05T14:31:15.975Z,26.97
2018-10-05T14:33:43.283Z,27.11
2018-10-05T14:36:10.520Z,26.97
2018-10-05T14:38:38.193Z,26.30
2018-10-05T14:41:05.555Z,27.01
2018-10-05T14:43:33.056Z,27.15
2018-10-05T14:46:00.431Z,27.04
2018-10-05T14:48:27.696Z,27.05
2018-10-05T14:50:55.015Z,26.62
2018-10-05T14:53:22.409Z,26.18
2018-10-05T14:55:49.720Z,25.63
2018-10-05T14:58:16.923Z,25.25
2018-10-05T15:00:44.108Z,25.01
2018-10-05T15:03:11.381Z,24.82
2018-10-05T15:05:38.728Z,24.61
2018-10-05T15:08:06.052Z,24.50
2018-10-05T15:10:33.313Z,24.30
2018-10-05T15:13:00.555Z,24.07
2018-10-05T15:15:27.717Z,23.87
2018-10-05T15:17:54.888Z,23.91
2018-10-05T15:20:23.534Z,23.70
2018-10-05T15:22:51.262Z,23.70
2018-10-05T15:25:18.525Z,23.60
2018-10-05T15:27:45.806Z,23.54
2018-10-05T15:30:13.231Z,23.50
2018-10-05T15:32:40.524Z,23.43
2018-10-05T15:35:07.939Z,23.41
2018-10-05T15:37:35.180Z,23.32
2018-10-05T15:40:02.463Z,23.26
2018-10-05T15:42:30.115Z,23.23
2018-10-05T15:44:57.580Z,23.16
2018-10-05T15:47:25.926Z,23.21
2018-10-05T15:49:53.169Z,23.20
2018-10-05T15:52:20.465Z,23.15
2018-10-05T15:54:47.911Z,23.00
2018-10-05T15:57:15.218Z,22.95
2018-10-05T15:59:42.446Z,22.89
2018-10-05T16:02:09.798Z,22.81
2018-10-05T16:04:37.130Z,22.73
2018-10-05T16:07:04.353Z,22.72
2018-10-05T16:09:31.613Z,22.61
2018-10-05T16:11:58.845Z,22.57
2018-10-05T16:14:26.092Z,22.53
2018-10-05T16:16:53.413Z,22.47
2018-10-05T16:19:20.587Z,22.44
2018-10-05T16:21:47.815Z,22.37
2018-10-05T16:24:24.960Z,22.31
2018-10-05T16:26:53.148Z,22.23
2018-10-05T16:29:20.435Z,22.20
2018-10-05T16:31:47.649Z,22.15
2018-10-05T16:34:14.913Z,22.12
2018-10-05T16:36:42.161Z,22.08
2018-10-05T16:39:10.912Z,22.03
2018-10-05T16:41:38.102Z,21.96
2018-10-05T16:44:05.249Z,21.88
2018-10-05T16:46:32.528Z,21.81
2018-10-05T16:48:59.762Z,21.69
2018-10-05T16:51:27.099Z,21.61
2018-10-05T16:53:54.315Z,21.57
2018-10-05T16:56:21.519Z,21.49
2018-10-05T16:58:48.719Z,21.37
2018-10-05T17:01:15.874Z,21.26
2018-10-05T17:03:43.374Z,21.12
2018-10-05T17:06:10.579Z,20.99
2018-10-05T17:08:40.745Z,20.90
2018-10-05T17:11:07.941Z,20.81
2018-10-05T17:13:35.146Z,20.73
2018-10-05T17:16:02.359Z,20.71
2018-10-05T17:18:29.547Z,20.64
2018-10-05T17:20:56.706Z,20.57
2018-10-05T17:23:23.975Z,20.54
2018-10-05T17:25:51.225Z,20.43
2018-10-05T17:28:18.413Z,20.33
2018-10-05T17:30:45.651Z,20.27
2018-10-05T17:33:12.906Z,20.25
2018-10-05T17:35:40.105Z,20.16
2018-10-05T17:38:07.464Z,20.10
2018-10-05T17:40:34.713Z,19.98
2018-10-05T17:43:01.865Z,19.93
2018-10-05T17:45:29.218Z,19.84
2018-10-05T17:47:56.642Z,19.70
2018-10-05T17:50:23.854Z,19.57
2018-10-05T17:52:51.278Z,19.47
2018-10-05T17:55:18.630Z,19.35
2018-10-05T17:57:45.890Z,19.23
2018-10-05T18:00:13.143Z,19.08
2018-10-05T18:02:40.426Z,18.95
2018-10-05T18:05:07.657Z,18.93
2018-10-05T18:07:34.900Z,18.93
2018-10-05T18:10:02.156Z,18.85
2018-10-05T18:12:29.354Z,18.80
2018-10-05T18:14:56.681Z,18.71
2018-10-05T18:17:23.764Z,18.36
2018-10-05T18:19:50.971Z,18.48
2018-10-05T18:22:18.229Z,18.48
2018-10-05T18:24:45.532Z,18.40
2018-10-05T18:27:12.759Z,18.26
2018-10-05T18:29:39.942Z,18.14
2018-10-05T18:32:07.144Z,18.11
2018-10-05T18:34:34.414Z,18.09
2018-10-05T18:37:01.665Z,18.01
2018-10-05T18:39:28.872Z,17.93
2018-10-05T18:41:56.322Z,17.93
2018-10-05T18:44:23.566Z,17.94
2018-10-05T18:46:50.804Z,17.81
2018-10-05T18:49:18.169Z,17.69
2018-10-05T18:51:45.412Z,17.54
2018-10-05T18:54:12.573Z,17.52
2018-10-05T18:56:51.113Z,17.51
2018-10-05T18:59:18.296Z,17.50
2018-10-05T19:01:45.490Z,17.28
2018-10-05T19:04:12.731Z,17.23
2018-10-05T19:06:40.395Z,17.21
2018-10-05T19:09:07.600Z,17.26
2018-10-05T19:11:35.524Z,17.24
2018-10-05T19:14:02.904Z,17.19
2018-10-05T19:16:30.072Z,17.12
2018-10-05T19:18:57.414Z,17.17
2018-10-05T19:21:24.596Z,17.16
2018-10-05T19:23:51.895Z,17.17
2018-10-05T19:26:19.138Z,17.15
2018-10-05T19:28:46.316Z,17.10
2018-10-05T19:31:13.566Z,16.96
2018-10-05T19:33:41.783Z,16.89
2018-10-05T19:36:08.954Z,16.85
2018-10-05T19:38:36.245Z,16.84
2018-10-05T19:41:03.473Z,16.91
2018-10-05T19:43:30.750Z,16.87
2018-10-05T19:45:57.998Z,16.82
2018-10-05T19:48:25.314Z,16.77
2018-10-05T19:50:52.635Z,16.68
2018-10-05T19:53:20.075Z,16.52
2018-10-05T19:55:47.286Z,16.50
2018-10-05T19:58:14.515Z,16.55
2018-10-05T20:00:41.897Z,16.59
2018-10-05T20:03:09.220Z,16.52
2018-10-05T20:05:36.658Z,16.41
2018-10-05T20:08:03.924Z,16.30
2018-10-05T20:10:31.571Z,16.28
2018-10-05T20:12:58.854Z,16.24
2018-10-05T20:15:26.549Z,16.10
2018-10-05T20:17:53.984Z,16.03
2018-10-05T20:20:21.163Z,15.96
2018-10-05T20:22:48.574Z,15.93
2018-10-05T20:25:15.794Z,15.84
2018-10-05T20:27:43.187Z,15.84
2018-10-05T20:30:10.465Z,15.74
2018-10-05T20:32:37.788Z,15.65
2018-10-05T20:35:04.994Z,15.58
2018-10-05T20:37:32.472Z,15.63
2018-10-05T20:39:59.523Z,15.66
2018-10-05T20:42:26.784Z,15.65
2018-10-05T20:44:54.074Z,15.58
2018-10-05T20:47:21.330Z,15.56
2018-10-05T20:49:48.478Z,15.50
2018-10-05T20:52:15.962Z,15.48
2018-10-05T20:54:43.652Z,15.42
2018-10-05T20:57:10.972Z,15.41
2018-10-05T20:59:38.238Z,15.41
2018-10-05T21:02:05.415Z,15.34
2018-10-05T21:04:32.654Z,15.26
2018-10-05T21:06:59.967Z,15.23
2018-10-05T21:09:27.218Z,15.18
2018-10-05T21:11:54.595Z,15.21
2018-10-05T21:14:21.754Z,15.24
2018-10-05T21:16:48.971Z,15.13
2018-10-05T21:19:16.263Z,15.07
2018-10-05T21:21:43.507Z,15.04
2018-10-05T21:24:10.745Z,15.06
2018-10-05T21:26:38.005Z,15.06
2018-10-05T21:29:05.719Z,14.80
2018-10-05T21:31:32.915Z,15.02
2018-10-05T21:34:00.133Z,14.89
2018-10-05T21:36:27.270Z,14.94
2018-10-05T21:38:54.561Z,14.93
2018-10-05T21:41:21.738Z,14.83
2018-10-05T21:43:48.895Z,14.80
2018-10-05T21:46:16.664Z,14.79
2018-10-05T21:48:43.860Z,14.74
2018-10-05T21:51:11.047Z,14.70
2018-10-05T21:53:38.373Z,14.59
2018-10-05T21:56:05.763Z,14.48
2018-10-05T21:58:33.028Z,14.54
2018-10-05T22:01:00.311Z,14.49
2018-10-05T22:03:29.743Z,14.46
2018-10-05T22:05:56.991Z,14.43
2018-10-05T22:08:24.212Z,14.42
2018-10-05T22:10:51.425Z,14.39
2018-10-05T22:13:18.634Z,14.40
2018-10-05T22:15:46.020Z,14.33
2018-10-05T22:18:13.262Z,14.27
2018-10-05T22:20:40.475Z,14.24
2018-10-05T22:23:07.686Z,14.24
2018-10-05T22:25:34.978Z,14.24
2018-10-05T22:28:02.130Z,14.25
2018-10-05T22:30:29.375Z,14.28
2018-10-05T22:32:56.566Z,14.25
2018-10-05T22:35:23.868Z,14.19
2018-10-05T22:37:51.144Z,14.15
2018-10-05T22:40:18.697Z,14.17
2018-10-05T22:42:46.051Z,14.09
2018-10-05T22:45:13.266Z,14.06
2018-10-05T22:47:40.447Z,14.02
2018-10-05T22:50:07.746Z,13.92
2018-10-05T22:52:34.990Z,13.87
2018-10-05T22:55:02.228Z,13.85
2018-10-05T22:57:29.498Z,13.86
2018-10-05T22:59:56.643Z,13.81
2018-10-05T23:02:23.823Z,13.80
2018-10-05T23:04:51.027Z,13.77
2018-10-05T23:07:18.270Z,13.70
2018-10-05T23:09:45.440Z,13.71
2018-10-05T23:12:12.726Z,13.75
2018-10-05T23:14:39.908Z,13.77
2018-10-05T23:17:07.225Z,13.75
2018-10-05T23:19:34.607Z,13.66
2018-10-05T23:22:01.870Z,13.63
2018-10-05T23:24:29.240Z,13.54
2018-10-05T23:26:56.468Z,13.51
2018-10-05T23:29:23.682Z,13.58
2018-10-05T23:31:50.932Z,13.68
2018-10-05T23:34:18.537Z,13.66
2018-10-05T23:36:45.719Z,13.64
2018-10-05T23:39:12.838Z,13.56
2018-10-05T23:41:40.019Z,13.50
2018-10-05T23:44:07.354Z,13.49
2018-10-05T23:46:34.610Z,13.39
2018-10-05T23:49:01.834Z,13.29
2018-10-05T23:51:29.053Z,13.26
2018-10-05T23:53:56.223Z,13.27
2018-10-05T23:56:23.618Z,13.21
2018-10-05T23:58:50.821Z,13.19
